Time;durP1;ratioP1;P1;durP2;ratioP2;P2;SDS_P1;SDS_P2;PMS_P1;PMS_P2;Temp;Humidity;BMP_temperature;BMP_pressure;BME280_temperature;BME280_humidity;BME280_pressure;Samples;Min_cycle;Max_cycle;Signal;HPM_P1;HPM_P2
2023/10/21 00:02:55;;;;;;;0.68;0.68;;;7.70;99.90;;;;;;4413967;32;20387;-61
2023/10/21 00:05:20;;;;;;;0.40;0.40;;;7.70;99.90;;;;;;4416521;32;20045;-60
2023/10/21 00:07:45;;;;;;;0.73;0.70;;;7.80;99.90;;;;;;4408613;32;20502;-59
2023/10/21 00:10:11;;;;;;;0.70;0.70;;;7.80;99.90;;;;;;4417184;32;20057;-61
2023/10/21 00:12:37;;;;;;;1.87;1.62;;;7.70;99.90;;;;;;4417387;32;20474;-60
2023/10/21 00:15:06;;;;;;;0.95;0.88;;;7.80;99.90;;;;;;4413238;32;20069;-61
2023/10/21 00:17:32;;;;;;;1.80;0.85;;;7.80;99.90;;;;;;4413483;32;20131;-60
2023/10/21 00:19:59;;;;;;;0.65;0.65;;;7.70;99.90;;;;;;4412273;32;20522;-61
2023/10/21 00:22:25;;;;;;;0.68;0.68;;;7.80;99.90;;;;;;4402445;32;20509;-60
2023/10/21 00:24:50;;;;;;;0.55;0.55;;;7.70;99.90;;;;;;4415095;32;20049;-61
2023/10/21 00:27:15;;;;;;;0.95;0.85;;;7.80;99.90;;;;;;4415621;32;20569;-61
2023/10/21 00:29:41;;;;;;;1.70;1.25;;;7.80;99.90;;;;;;4413826;32;20062;-61
2023/10/21 00:32:06;;;;;;;0.82;0.82;;;7.80;99.90;;;;;;4416224;32;20076;-60
2023/10/21 00:34:37;;;;;;;0.88;0.88;;;7.80;99.90;;;;;;4417269;32;20116;-60
2023/10/21 00:37:04;;;;;;;1.95;1.75;;;7.80;99.90;;;;;;4410110;32;20557;-60
2023/10/21 00:39:34;;;;;;;0.98;0.95;;;7.70;99.90;;;;;;4412167;32;21039;-59
2023/10/21 00:42:00;;;;;;;0.75;0.75;;;7.70;99.90;;;;;;4416244;32;20093;-58
2023/10/21 00:44:26;;;;;;;0.62;0.62;;;7.80;99.90;;;;;;4414137;32;20084;-60
2023/10/21 00:46:51;;;;;;;1.85;1.65;;;7.80;99.90;;;;;;4410920;32;20096;-60
2023/10/21 00:49:17;;;;;;;0.75;0.75;;;7.80;99.90;;;;;;4410525;32;20085;-61
2023/10/21 00:51:44;;;;;;;1.27;0.85;;;7.80;99.90;;;;;;4415252;32;20112;-60
2023/10/21 00:54:10;;;;;;;0.60;0.60;;;7.80;99.90;;;;;;4414314;32;21868;-60
2023/10/21 00:56:36;;;;;;;2.87;1.12;;;7.80;99.90;;;;;;4408790;32;20082;-61
2023/10/21 00:59:02;;;;;;;0.45;0.45;;;7.70;99.90;;;;;;4415252;32;20066;-61
2023/10/21 01:01:27;;;;;;;1.25;0.73;;;7.80;99.90;;;;;;4419327;32;20054;-60
2023/10/21 01:03:53;;;;;;;13.35;1.37;;;7.80;99.90;;;;;;4418348;32;20084;-61
2023/10/21 01:06:19;;;;;;;1.17;1.05;;;7.90;99.90;;;;;;4416696;32;20111;-58
2023/10/21 01:08:46;;;;;;;1.90;1.30;;;7.80;99.90;;;;;;4414248;32;20376;-61
2023/10/21 01:11:12;;;;;;;0.40;0.40;;;7.80;99.90;;;;;;4416890;32;20070;-60
2023/10/21 01:13:38;;;;;;;1.25;0.90;;;7.80;99.90;;;;;;4419553;32;20140;-61
2023/10/21 01:16:03;;;;;;;3.87;2.05;;;7.90;99.90;;;;;;4416787;32;20073;-60
2023/10/21 01:18:33;;;;;;;1.15;0.70;;;7.80;99.90;;;;;;4417195;32;20556;-59
2023/10/21 01:21:00;;;;;;;1.60;1.33;;;7.80;99.90;;;;;;4417541;32;20858;-60
2023/10/21 01:23:27;;;;;;;1.02;0.93;;;7.80;99.90;;;;;;4414243;32;20078;-60
2023/10/21 01:25:52;;;;;;;2.72;1.00;;;7.90;99.90;;;;;;4419821;32;20053;-60
2023/10/21 01:28:18;;;;;;;2.25;1.02;;;7.90;99.90;;;;;;4415160;32;20081;-60
2023/10/21 01:30:43;;;;;;;2.47;1.65;;;7.90;99.90;;;;;;4418733;32;20126;-60
2023/10/21 01:33:08;;;;;;;1.90;1.05;;;7.90;99.90;;;;;;4414932;32;20071;-61
2023/10/21 01:35:34;;;;;;;1.37;1.27;;;7.90;99.90;;;;;;4416340;32;20089;-60
2023/10/21 01:37:59;;;;;;;0.70;0.70;;;7.90;99.90;;;;;;4411283;32;20504;-59
2023/10/21 01:40:25;;;;;;;0.70;0.60;;;7.90;99.90;;;;;;4412900;32;20077;-61
2023/10/21 01:42:50;;;;;;;3.37;1.85;;;8.00;99.90;;;;;;4417462;32;20158;-60
2023/10/21 01:45:16;;;;;;;0.82;0.82;;;8.00;99.90;;;;;;4402564;32;20046;-60
2023/10/21 01:47:41;;;;;;;1.73;1.62;;;8.00;99.90;;;;;;4415262;32;20442;-61
2023/10/21 01:50:07;;;;;;;1.75;1.02;;;8.00;99.90;;;;;;4415370;32;20207;-61
2023/10/21 01:52:35;;;;;;;1.23;1.12;;;8.00;99.90;;;;;;4418181;32;20054;-60
2023/10/21 01:55:05;;;;;;;1.73;0.75;;;8.00;99.90;;;;;;4404796;32;20112;-60
2023/10/21 01:57:32;;;;;;;1.17;0.93;;;8.00;99.90;;;;;;4409760;32;20054;-60
2023/10/21 01:59:58;;;;;;;1.02;0.93;;;8.00;99.90;;;;;;4415895;32;20085;-60
2023/10/21 02:02:24;;;;;;;0.50;0.50;;;8.00;99.90;;;;;;4417300;32;20532;-59
2023/10/21 02:04:49;;;;;;;2.90;1.42;;;8.00;99.90;;;;;;4417310;32;20045;-59
2023/10/21 02:07:15;;;;;;;1.23;1.02;;;8.00;99.90;;;;;;4415439;32;20094;-59
2023/10/21 02:09:40;;;;;;;0.60;0.60;;;8.00;99.90;;;;;;4417586;32;20141;-58
2023/10/21 02:12:07;;;;;;;4.57;1.48;;;8.00;99.90;;;;;;4418226;32;20089;-60
2023/10/21 02:14:33;;;;;;;1.10;1.00;;;8.00;99.90;;;;;;4415911;32;20089;-57
2023/10/21 02:16:58;;;;;;;16.65;1.45;;;8.00;99.90;;;;;;4410699;32;20666;-60
2023/10/21 02:19:24;;;;;;;4.60;1.55;;;8.00;99.90;;;;;;4413153;32;20062;-59
2023/10/21 02:21:50;;;;;;;1.30;1.20;;;8.00;99.90;;;;;;4418187;32;20128;-60
2023/10/21 02:24:16;;;;;;;1.40;0.80;;;8.00;99.90;;;;;;4421350;32;20069;-60
2023/10/21 02:26:41;;;;;;;1.60;0.68;;;8.00;99.90;;;;;;4410618;32;20196;-59
2023/10/21 02:29:07;;;;;;;1.65;1.48;;;8.00;99.90;;;;;;4416365;32;20148;-58
2023/10/21 02:31:33;;;;;;;0.82;0.82;;;8.00;99.90;;;;;;4415158;32;20065;-61
2023/10/21 02:33:59;;;;;;;8.93;2.08;;;8.10;99.90;;;;;;4418024;32;20089;-58
2023/10/21 02:36:24;;;;;;;1.25;1.15;;;8.00;99.90;;;;;;4414332;32;20127;-60
2023/10/21 02:38:51;;;;;;;1.12;1.05;;;8.00;99.90;;;;;;4411616;32;20128;-59
2023/10/21 02:41:17;;;;;;;0.45;0.45;;;8.00;99.90;;;;;;4415440;32;20151;-59
2023/10/21 02:43:42;;;;;;;0.70;0.70;;;8.10;99.90;;;;;;4420601;32;20054;-58
2023/10/21 02:46:10;;;;;;;3.45;1.92;;;8.00;99.90;;;;;;4415531;32;20718;-60
2023/10/21 02:48:35;;;;;;;2.67;1.77;;;8.10;99.90;;;;;;4415574;32;20536;-60
2023/10/21 02:51:09;;;;;;;1.75;1.65;;;8.10;99.90;;;;;;4416620;32;20092;-59
2023/10/21 02:53:36;;;;;;;0.98;0.90;;;8.20;99.90;;;;;;4399019;32;20152;-60
2023/10/21 02:56:05;;;;;;;2.65;2.12;;;8.10;99.90;;;;;;4411847;32;20058;-60
2023/10/21 02:58:31;;;;;;;1.75;1.23;;;8.10;99.90;;;;;;4412639;32;20116;-59
2023/10/21 03:00:56;;;;;;;0.65;0.65;;;8.20;99.90;;;;;;4412040;32;20115;-60
2023/10/21 03:03:22;;;;;;;7.20;0.93;;;8.20;99.90;;;;;;4419847;32;20555;-60
2023/10/21 03:05:48;;;;;;;1.00;1.00;;;8.20;99.90;;;;;;4416585;32;20102;-59
2023/10/21 03:08:14;;;;;;;0.93;0.93;;;8.20;99.90;;;;;;4415723;32;20065;-60
2023/10/21 03:10:39;;;;;;;1.90;1.00;;;8.10;99.90;;;;;;4416767;32;20567;-59
2023/10/21 03:13:06;;;;;;;2.35;1.70;;;8.10;99.90;;;;;;4417549;32;20061;-60
2023/10/21 03:15:33;;;;;;;1.70;1.23;;;8.10;99.90;;;;;;4417398;32;20058;-59
2023/10/21 03:17:58;;;;;;;3.75;0.60;;;8.10;99.90;;;;;;4408729;32;20101;-60
2023/10/21 03:20:24;;;;;;;1.10;1.00;;;8.20;99.90;;;;;;4415270;32;20068;-57
2023/10/21 03:22:49;;;;;;;0.98;0.95;;;8.20;99.90;;;;;;4417766;32;20606;-59
2023/10/21 03:25:15;;;;;;;1.40;0.70;;;8.20;99.90;;;;;;4414215;32;20082;-60
2023/10/21 03:27:40;;;;;;;2.17;1.98;;;8.20;99.90;;;;;;4413149;32;20120;-60
2023/10/21 03:30:07;;;;;;;3.72;1.48;;;8.20;99.90;;;;;;4414536;32;20081;-57
2023/10/21 03:32:32;;;;;;;2.80;1.45;;;8.20;99.90;;;;;;4415112;32;20381;-60
2023/10/21 03:34:58;;;;;;;0.60;0.60;;;8.20;99.90;;;;;;4413928;32;20430;-60
2023/10/21 03:37:23;;;;;;;1.87;1.48;;;8.20;99.90;;;;;;4411284;32;20057;-61
2023/10/21 03:39:49;;;;;;;3.25;1.67;;;8.10;99.90;;;;;;4413594;32;20078;-60
2023/10/21 03:42:14;;;;;;;0.75;0.75;;;8.20;99.90;;;;;;4415070;32;20069;-61
2023/10/21 03:44:40;;;;;;;3.67;0.65;;;8.20;99.90;;;;;;4416937;32;20539;-61
2023/10/21 03:47:06;;;;;;;2.25;1.08;;;8.20;99.90;;;;;;4415525;32;20081;-61
2023/10/21 03:49:31;;;;;;;1.33;0.98;;;8.20;99.90;;;;;;4414867;32;20073;-60
2023/10/21 03:51:57;;;;;;;1.08;0.77;;;8.20;99.90;;;;;;4415352;32;20061;-60
2023/10/21 03:54:22;;;;;;;0.50;0.50;;;8.20;99.90;;;;;;4418437;32;20086;-60
2023/10/21 03:56:48;;;;;;;0.50;0.50;;;8.20;99.90;;;;;;4410167;32;20841;-59
2023/10/21 03:59:13;;;;;;;2.83;1.33;;;8.20;99.90;;;;;;4414112;32;20065;-59
2023/10/21 04:01:39;;;;;;;1.08;0.93;;;8.20;99.90;;;;;;4413052;32;20054;-59
2023/10/21 04:04:05;;;;;;;0.75;0.75;;;8.20;99.90;;;;;;4416110;32;20310;-59
2023/10/21 04:06:30;;;;;;;0.57;0.57;;;8.20;99.90;;;;;;4414491;32;20081;-60
2023/10/21 04:08:56;;;;;;;4.80;0.98;;;8.10;99.90;;;;;;4410730;32;20057;-60
2023/10/21 04:11:21;;;;;;;3.20;1.00;;;8.10;99.90;;;;;;4414816;32;20086;-59
2023/10/21 04:13:47;;;;;;;1.00;0.98;;;8.10;99.90;;;;;;4415932;32;20156;-59
2023/10/21 04:16:13;;;;;;;0.98;0.75;;;8.20;99.90;;;;;;4415594;32;20057;-60
2023/10/21 04:18:38;;;;;;;3.70;1.08;;;8.20;99.90;;;;;;4412238;32;21269;-57
2023/10/21 04:21:05;;;;;;;2.08;1.40;;;8.20;99.90;;;;;;4415053;32;20512;-61
2023/10/21 04:23:31;;;;;;;3.92;1.25;;;8.20;99.90;;;;;;4416994;32;20139;-61
2023/10/21 04:25:56;;;;;;;1.95;1.02;;;8.20;99.90;;;;;;4418019;32;20074;-61
2023/10/21 04:28:23;;;;;;;0.65;0.65;;;8.20;99.90;;;;;;4413842;32;20156;-61
2023/10/21 04:30:48;;;;;;;1.12;0.82;;;8.20;99.90;;;;;;4417917;32;20085;-61
2023/10/21 04:33:15;;;;;;;0.93;0.93;;;8.20;99.90;;;;;;4419447;32;20081;-61
2023/10/21 04:35:40;;;;;;;1.83;0.82;;;8.20;99.90;;;;;;4420784;32;20444;-61
2023/10/21 04:38:07;;;;;;;0.73;0.73;;;8.30;99.90;;;;;;4413640;32;20085;-62
2023/10/21 04:40:33;;;;;;;0.75;0.75;;;8.30;99.90;;;;;;4417768;32;20563;-58
2023/10/21 04:42:58;;;;;;;3.70;1.25;;;8.20;99.90;;;;;;4418454;32;20062;-60
2023/10/21 04:45:24;;;;;;;0.52;0.52;;;8.20;99.90;;;;;;4417753;32;20094;-62
2023/10/21 04:47:51;;;;;;;2.35;1.30;;;8.20;99.90;;;;;;4417990;32;20057;-62
2023/10/21 04:50:16;;;;;;;1.27;1.17;;;8.20;99.90;;;;;;4417793;32;20065;-63
2023/10/21 04:52:43;;;;;;;0.40;0.40;;;8.20;99.90;;;;;;4417874;32;20116;-63
2023/10/21 04:55:09;;;;;;;0.70;0.70;;;8.20;99.90;;;;;;4414436;32;20057;-62
2023/10/21 04:57:34;;;;;;;1.25;0.73;;;8.20;99.90;;;;;;4396015;32;21307;-61
2023/10/21 04:59:59;;;;;;;1.20;0.90;;;8.20;99.90;;;;;;4415850;32;20065;-62
2023/10/21 05:02:25;;;;;;;0.85;0.85;;;8.20;99.90;;;;;;4419938;32;20472;-62
2023/10/21 05:04:50;;;;;;;2.50;1.62;;;8.20;99.90;;;;;;4419002;32;20462;-62
2023/10/21 05:07:17;;;;;;;1.48;1.23;;;8.20;99.90;;;;;;4418603;32;20585;-61
2023/10/21 05:09:42;;;;;;;1.65;1.17;;;8.20;99.90;;;;;;4419225;32;20086;-62
2023/10/21 05:12:10;;;;;;;0.60;0.60;;;8.20;99.90;;;;;;4415567;32;20089;-62
2023/10/21 05:14:36;;;;;;;0.40;0.40;;;8.30;99.90;;;;;;4420843;32;20140;-60
2023/10/21 05:17:01;;;;;;;1.95;1.08;;;8.20;99.90;;;;;;4413254;32;20287;-62
2023/10/21 05:19:27;;;;;;;2.25;1.33;;;8.20;99.90;;;;;;4418366;32;20078;-62
2023/10/21 05:21:52;;;;;;;1.58;0.85;;;8.30;99.90;;;;;;4420827;32;20127;-62
2023/10/21 05:24:17;;;;;;;1.75;0.82;;;8.30;99.90;;;;;;4418606;32;20074;-60
2023/10/21 05:26:43;;;;;;;2.47;0.98;;;8.30;99.90;;;;;;4413263;32;20223;-62
2023/10/21 05:29:08;;;;;;;0.40;0.40;;;8.30;99.90;;;;;;4417640;32;20073;-59
2023/10/21 05:31:34;;;;;;;0.50;0.50;;;8.30;99.90;;;;;;4417626;32;20073;-62
2023/10/21 05:33:59;;;;;;;0.65;0.65;;;8.20;99.90;;;;;;4418024;32;20105;-63
2023/10/21 05:36:26;;;;;;;6.22;1.02;;;8.20;99.90;;;;;;4412848;32;20065;-62
2023/10/21 05:38:51;;;;;;;0.70;0.70;;;8.30;99.90;;;;;;4413010;32;20068;-61
2023/10/21 05:41:17;;;;;;;0.57;0.57;;;8.20;99.90;;;;;;4415369;32;20556;-62
2023/10/21 05:43:42;;;;;;;1.00;0.93;;;8.30;99.90;;;;;;4421226;32;20089;-61
2023/10/21 05:46:08;;;;;;;1.55;0.93;;;8.30;99.90;;;;;;4416271;32;21304;-61
2023/10/21 05:48:33;;;;;;;2.72;1.12;;;8.30;99.90;;;;;;4416029;32;20050;-60
2023/10/21 05:51:01;;;;;;;0.77;0.77;;;8.30;99.90;;;;;;4420850;32;20418;-61
2023/10/21 05:53:26;;;;;;;0.30;0.30;;;8.30;99.90;;;;;;4417822;32;20090;-59
2023/10/21 05:55:54;;;;;;;0.68;0.68;;;8.30;99.90;;;;;;4419514;32;20077;-61
2023/10/21 05:58:19;;;;;;;1.35;1.25;;;8.30;99.90;;;;;;4394227;32;20102;-61
2023/10/21 06:00:45;;;;;;;1.73;1.00;;;8.30;99.90;;;;;;4416404;32;20120;-61
2023/10/21 06:03:10;;;;;;;1.62;0.82;;;8.30;99.90;;;;;;4421726;32;20109;-62
2023/10/21 06:05:36;;;;;;;0.75;0.68;;;8.30;99.90;;;;;;4418010;32;20072;-61
2023/10/21 06:08:02;;;;;;;1.08;0.98;;;8.30;99.90;;;;;;4414244;32;20415;-62
2023/10/21 06:10:28;;;;;;;1.62;0.68;;;8.30;99.90;;;;;;4416403;32;20136;-62
2023/10/21 06:12:54;;;;;;;8.88;2.58;;;8.30;99.90;;;;;;4419478;32;20568;-61
2023/10/21 06:15:20;;;;;;;0.40;0.40;;;8.30;99.90;;;;;;4417617;32;20527;-61
2023/10/21 06:17:45;;;;;;;0.30;0.30;;;8.30;99.90;;;;;;4398167;32;20062;-59
2023/10/21 06:20:11;;;;;;;0.70;0.62;;;8.40;99.90;;;;;;4418135;32;20097;-61
2023/10/21 06:22:37;;;;;;;0.60;0.60;;;8.40;99.90;;;;;;4420048;32;20855;-61
2023/10/21 06:25:04;;;;;;;5.47;1.40;;;8.50;99.90;;;;;;4417195;32;20411;-62
2023/10/21 06:27:29;;;;;;;1.60;0.82;;;8.50;99.90;;;;;;4417751;32;20275;-61
2023/10/21 06:29:55;;;;;;;7.18;1.55;;;8.60;99.90;;;;;;4415967;32;20086;-62
2023/10/21 06:32:21;;;;;;;0.50;0.50;;;8.50;99.90;;;;;;4419248;32;20083;-61
2023/10/21 06:34:46;;;;;;;0.65;0.65;;;8.50;99.90;;;;;;4416378;32;20132;-62
2023/10/21 06:37:12;;;;;;;0.85;0.50;;;8.50;99.90;;;;;;4410179;32;21397;-61
2023/10/21 06:39:37;;;;;;;0.60;0.60;;;8.50;99.90;;;;;;4414728;32;20101;-62
2023/10/21 06:42:03;;;;;;;4.43;2.30;;;8.50;99.90;;;;;;4419808;32;20085;-62
2023/10/21 06:44:29;;;;;;;0.93;0.77;;;8.50;99.90;;;;;;4418708;32;20081;-62
2023/10/21 06:46:55;;;;;;;0.88;0.88;;;8.50;99.90;;;;;;4411410;32;20533;-62
2023/10/21 06:49:20;;;;;;;1.55;0.90;;;8.50;99.90;;;;;;4415208;32;20122;-62
2023/10/21 06:51:52;;;;;;;3.28;0.70;;;8.50;99.90;;;;;;4417791;32;20077;-62
2023/10/21 06:54:17;;;;;;;0.82;0.77;;;8.60;99.90;;;;;;4416124;32;20089;-62
2023/10/21 06:56:45;;;;;;;2.67;0.80;;;8.60;99.90;;;;;;4411642;32;20093;-61
2023/10/21 06:59:10;;;;;;;0.90;0.73;;;8.60;99.90;;;;;;4414369;32;20162;-62
2023/10/21 07:01:36;;;;;;;0.80;0.80;;;8.60;99.90;;;;;;4417133;32;20058;-62
2023/10/21 07:04:01;;;;;;;1.75;1.15;;;8.60;99.90;;;;;;4415132;32;20066;-61
2023/10/21 07:06:27;;;;;;;0.68;0.68;;;8.70;99.90;;;;;;4417391;32;20545;-62
2023/10/21 07:08:52;;;;;;;0.65;0.62;;;8.70;99.90;;;;;;4415784;32;20146;-61
2023/10/21 07:11:18;;;;;;;0.50;0.50;;;8.70;99.90;;;;;;4417073;32;20057;-62
2023/10/21 07:13:43;;;;;;;3.35;0.90;;;8.80;99.90;;;;;;4415752;32;20449;-62
2023/10/21 07:16:10;;;;;;;1.37;1.10;;;8.80;99.90;;;;;;4412658;32;20069;-61
2023/10/21 07:18:36;;;;;;;1.05;0.98;;;8.80;99.90;;;;;;4397191;32;20152;-60
2023/10/21 07:21:03;;;;;;;2.85;1.77;;;8.80;99.90;;;;;;4416139;32;20053;-60
2023/10/21 07:23:28;;;;;;;1.20;0.82;;;8.80;99.90;;;;;;4419828;32;20509;-62
2023/10/21 07:25:54;;;;;;;0.93;0.93;;;8.90;99.90;;;;;;4413498;32;20053;-62
2023/10/21 07:28:19;;;;;;;0.62;0.62;;;9.00;99.90;;;;;;4414890;32;20525;-62
2023/10/21 07:30:45;;;;;;;1.15;0.52;;;9.10;99.90;;;;;;4417157;32;20090;-62
2023/10/21 07:33:10;;;;;;;0.47;0.47;;;9.10;99.90;;;;;;4415178;32;20113;-62
2023/10/21 07:35:36;;;;;;;0.85;0.85;;;9.00;99.90;;;;;;4415096;32;20086;-64
2023/10/21 07:38:03;;;;;;;0.43;0.43;;;9.10;99.90;;;;;;4406412;32;20547;-61
2023/10/21 07:40:29;;;;;;;1.05;1.00;;;9.10;99.90;;;;;;4417133;32;20173;-60
2023/10/21 07:42:55;;;;;;;1.23;0.62;;;9.10;99.90;;;;;;4411864;32;20070;-61
2023/10/21 07:45:21;;;;;;;1.05;0.98;;;9.10;99.90;;;;;;4415886;32;20068;-61
2023/10/21 07:47:47;;;;;;;2.17;1.10;;;9.20;99.90;;;;;;4413571;32;20061;-62
2023/10/21 07:50:13;;;;;;;2.65;0.73;;;9.20;99.90;;;;;;4416240;32;20303;-60
2023/10/21 07:52:39;;;;;;;1.62;0.95;;;9.20;99.90;;;;;;4417647;32;20426;-60
2023/10/21 07:55:05;;;;;;;2.62;1.12;;;9.30;99.90;;;;;;4415783;32;20560;-61
2023/10/21 07:57:31;;;;;;;0.40;0.40;;;9.30;99.90;;;;;;4412527;32;20078;-60
2023/10/21 07:59:58;;;;;;;1.10;1.05;;;9.40;99.90;;;;;;4415330;32;20120;-61
2023/10/21 08:02:24;;;;;;;0.75;0.75;;;9.40;99.90;;;;;;4415421;32;20522;-62
2023/10/21 08:04:49;;;;;;;1.08;0.57;;;9.50;99.90;;;;;;4410459;32;20053;-62
2023/10/21 08:07:15;;;;;;;1.08;0.90;;;9.60;99.90;;;;;;4399783;32;20085;-61
2023/10/21 08:09:41;;;;;;;1.05;0.90;;;9.70;99.90;;;;;;4417696;32;20445;-61
2023/10/21 08:12:08;;;;;;;0.88;0.65;;;9.80;99.90;;;;;;4419781;32;20080;-61
2023/10/21 08:14:36;;;;;;;3.97;1.30;;;9.90;99.90;;;;;;4417602;32;20128;-59
2023/10/21 08:17:04;;;;;;;0.90;0.75;;;9.90;99.90;;;;;;4415847;32;20078;-60
2023/10/21 08:19:30;;;;;;;0.60;0.60;;;10.00;99.90;;;;;;4409432;32;20093;-60
2023/10/21 08:21:56;;;;;;;1.00;0.73;;;10.10;99.90;;;;;;4415507;32;20103;-60
2023/10/21 08:24:22;;;;;;;2.75;1.08;;;10.10;99.90;;;;;;4417005;32;20074;-60
2023/10/21 08:26:48;;;;;;;0.65;0.65;;;10.20;99.90;;;;;;4416124;32;20093;-61
2023/10/21 08:29:13;;;;;;;1.10;0.80;;;10.30;99.90;;;;;;4415089;32;20113;-60
2023/10/21 08:31:39;;;;;;;1.98;1.12;;;10.40;99.90;;;;;;4420631;32;20132;-61
2023/10/21 08:34:09;;;;;;;1.00;0.77;;;10.40;99.90;;;;;;4417296;32;20529;-61
2023/10/21 08:36:35;;;;;;;0.53;0.53;;;10.40;99.90;;;;;;4414937;32;20057;-62
2023/10/21 08:39:01;;;;;;;0.73;0.73;;;10.40;99.90;;;;;;4416397;32;20603;-61
2023/10/21 08:41:31;;;;;;;0.50;0.50;;;10.50;99.90;;;;;;4418817;32;20078;-61
2023/10/21 08:43:56;;;;;;;0.95;0.80;;;10.50;99.90;;;;;;4420362;32;20086;-61
2023/10/21 08:46:23;;;;;;;1.23;0.93;;;10.60;99.90;;;;;;4419012;32;20054;-61
2023/10/21 08:48:49;;;;;;;1.80;0.80;;;10.60;99.90;;;;;;4420455;32;20529;-61
2023/10/21 08:51:19;;;;;;;1.55;1.37;;;10.70;99.90;;;;;;4419084;32;20074;-61
2023/10/21 08:53:46;;;;;;;2.33;1.20;;;10.80;99.90;;;;;;4414994;32;20140;-61
2023/10/21 08:56:13;;;;;;;1.48;0.73;;;10.90;99.90;;;;;;4416260;32;20050;-61
2023/10/21 08:58:38;;;;;;;0.52;0.52;;;10.90;99.90;;;;;;4414248;32;20073;-60
2023/10/21 09:01:05;;;;;;;0.57;0.57;;;11.00;99.90;;;;;;4416046;32;20078;-59
2023/10/21 09:03:32;;;;;;;2.45;0.88;;;11.00;99.90;;;;;;4418179;32;20057;-61
2023/10/21 09:06:03;;;;;;;0.80;0.73;;;11.10;99.90;;;;;;4419261;32;20584;-61
2023/10/21 09:08:31;;;;;;;0.80;0.77;;;11.10;99.90;;;;;;4402395;32;20082;-60
2023/10/21 09:10:59;;;;;;;0.40;0.40;;;11.20;99.90;;;;;;4419221;32;20078;-59
2023/10/21 09:13:30;;;;;;;0.82;0.60;;;11.30;99.90;;;;;;4417585;32;20069;-59
2023/10/21 09:15:55;;;;;;;0.60;0.60;;;11.30;99.90;;;;;;4415212;32;20100;-60
2023/10/21 09:18:21;;;;;;;1.00;0.82;;;11.30;99.90;;;;;;4408772;32;20089;-60
2023/10/21 09:20:49;;;;;;;1.15;0.82;;;11.50;99.90;;;;;;4416506;32;20541;-60
2023/10/21 09:23:14;;;;;;;0.55;0.55;;;11.50;99.90;;;;;;4422428;32;20049;-60
2023/10/21 09:25:47;;;;;;;1.45;0.90;;;11.60;99.90;;;;;;4417932;32;20120;-60
2023/10/21 09:28:21;;;;;;;0.80;0.80;;;11.50;99.90;;;;;;4416360;32;20057;-60
2023/10/21 09:30:58;;;;;;;0.60;0.60;;;11.60;99.90;;;;;;4414714;32;20529;-62
2023/10/21 09:33:26;;;;;;;0.60;0.60;;;11.70;99.90;;;;;;4418757;32;20513;-62
2023/10/21 09:36:04;;;;;;;0.68;0.68;;;11.80;99.90;;;;;;4415433;32;20098;-62
2023/10/21 09:38:37;;;;;;;1.02;0.93;;;11.80;99.90;;;;;;4412925;32;20097;-62
2023/10/21 09:41:08;;;;;;;0.60;0.60;;;11.90;99.90;;;;;;4415504;32;20126;-62
2023/10/21 09:43:37;;;;;;;0.98;0.93;;;11.90;99.90;;;;;;4419875;32;20074;-62
2023/10/21 09:46:05;;;;;;;0.77;0.77;;;12.00;99.90;;;;;;4415373;32;20057;-62
2023/10/21 09:48:35;;;;;;;1.40;0.80;;;12.00;99.90;;;;;;4418179;32;20081;-61
2023/10/21 09:51:06;;;;;;;5.40;1.55;;;12.10;99.90;;;;;;4415621;32;20062;-62
2023/10/21 09:53:38;;;;;;;5.85;1.08;;;12.30;99.90;;;;;;4404873;32;20085;-62
2023/10/21 09:56:04;;;;;;;2.05;1.37;;;12.40;99.90;;;;;;4416067;32;20057;-61
2023/10/21 09:58:31;;;;;;;0.80;0.80;;;12.40;99.90;;;;;;4412081;32;20061;-61
2023/10/21 10:01:01;;;;;;;0.93;0.68;;;12.50;99.90;;;;;;4413586;32;20058;-62
2023/10/21 10:03:27;;;;;;;0.80;0.80;;;12.60;99.90;;;;;;4416622;32;20156;-62
2023/10/21 10:05:52;;;;;;;0.50;0.50;;;12.80;99.90;;;;;;4415668;32;20105;-62
2023/10/21 10:08:18;;;;;;;0.65;0.65;;;12.90;99.90;;;;;;4415543;32;20053;-62
2023/10/21 10:10:47;;;;;;;0.52;0.52;;;13.00;99.90;;;;;;4417894;32;20525;-61
2023/10/21 10:13:15;;;;;;;0.80;0.80;;;13.20;99.90;;;;;;4418073;32;20093;-60
2023/10/21 10:15:41;;;;;;;3.20;0.73;;;13.30;99.90;;;;;;4405048;32;20603;-59
2023/10/21 10:18:13;;;;;;;0.40;0.40;;;13.40;99.90;;;;;;4408233;32;20081;-61
2023/10/21 10:20:54;;;;;;;1.30;1.20;;;13.50;99.90;;;;;;4417282;32;20073;-59
2023/10/21 10:23:24;;;;;;;1.08;0.55;;;13.70;99.90;;;;;;4413965;32;20093;-59
2023/10/21 10:25:51;;;;;;;0.60;0.60;;;13.80;99.90;;;;;;4416448;32;20538;-60
2023/10/21 10:28:19;;;;;;;0.50;0.50;;;14.00;99.90;;;;;;4417982;32;20170;-60
2023/10/21 10:30:49;;;;;;;0.50;0.50;;;14.30;99.90;;;;;;4424759;32;20112;-60
2023/10/21 10:33:17;;;;;;;0.65;0.60;;;14.50;99.90;;;;;;4415659;32;20065;-60
2023/10/21 10:35:47;;;;;;;0.65;0.65;;;14.60;99.90;;;;;;4413402;32;20086;-61
2023/10/21 10:38:19;;;;;;;0.50;0.50;;;14.70;99.90;;;;;;4409935;32;20113;-60
2023/10/21 10:40:46;;;;;;;0.52;0.52;;;14.90;99.90;;;;;;4417740;32;20571;-60
2023/10/21 10:43:11;;;;;;;0.40;0.40;;;15.10;99.90;;;;;;4419006;32;20065;-61
2023/10/21 10:45:38;;;;;;;0.40;0.40;;;15.20;99.90;;;;;;4417112;32;20465;-62
2023/10/21 10:48:04;;;;;;;0.50;0.50;;;15.40;99.90;;;;;;4414064;32;20061;-60
2023/10/21 10:50:30;;;;;;;0.40;0.40;;;15.80;99.90;;;;;;4414227;32;20082;-61
2023/10/21 10:52:56;;;;;;;0.50;0.50;;;15.90;99.90;;;;;;4420235;32;20085;-60
2023/10/21 10:55:23;;;;;;;0.30;0.30;;;16.10;99.90;;;;;;4414359;32;20069;-61
2023/10/21 10:57:51;;;;;;;0.30;0.30;;;16.30;99.90;;;;;;4396741;32;20505;-60
2023/10/21 11:00:20;;;;;;;0.77;0.75;;;16.50;99.90;;;;;;4416009;32;20124;-61
2023/10/21 11:02:49;;;;;;;0.40;0.40;;;16.70;99.90;;;;;;4416606;32;20061;-60
2023/10/21 11:05:16;;;;;;;0.35;0.35;;;16.80;99.90;;;;;;4413909;32;20085;-61
2023/10/21 11:07:41;;;;;;;0.40;0.40;;;16.90;99.90;;;;;;4414036;32;20147;-60
2023/10/21 11:10:08;;;;;;;0.30;0.30;;;16.80;99.90;;;;;;4417829;32;20552;-61
2023/10/21 11:12:33;;;;;;;0.30;0.30;;;16.70;99.90;;;;;;4417725;32;20065;-61
2023/10/21 11:15:01;;;;;;;0.30;0.30;;;16.60;99.90;;;;;;4416456;32;20072;-60
2023/10/21 11:17:26;;;;;;;0.30;0.30;;;16.60;99.90;;;;;;4409939;32;20140;-60
2023/10/21 11:19:52;;;;;;;0.30;0.30;;;16.50;99.90;;;;;;4417754;32;21773;-61
2023/10/21 11:22:25;;;;;;;0.30;0.30;;;16.40;99.90;;;;;;4416711;32;20109;-62
2023/10/21 11:24:51;;;;;;;1.45;0.75;;;16.30;99.90;;;;;;4413405;32;20158;-62
2023/10/21 11:27:16;;;;;;;0.30;0.30;;;16.30;99.90;;;;;;4413114;32;20065;-62
2023/10/21 11:29:43;;;;;;;0.37;0.37;;;16.40;99.90;;;;;;4416196;32;20065;-61
2023/10/21 11:32:13;;;;;;;0.30;0.30;;;16.50;99.90;;;;;;4414629;32;20069;-62
2023/10/21 11:34:43;;;;;;;1.03;0.40;;;16.60;99.90;;;;;;4414045;32;20139;-62
2023/10/21 11:37:10;;;;;;;0.30;0.30;;;16.90;99.90;;;;;;4409202;32;20714;-62
2023/10/21 11:39:38;;;;;;;0.30;0.30;;;17.00;99.90;;;;;;4415864;32;20134;-60
2023/10/21 11:42:17;;;;;;;0.50;0.50;;;17.00;99.90;;;;;;4412485;32;20053;-62
2023/10/21 11:44:53;;;;;;;0.37;0.37;;;17.00;99.90;;;;;;4415435;32;20610;-62
2023/10/21 11:47:18;;;;;;;0.30;0.30;;;17.10;99.90;;;;;;4411773;32;20061;-62
2023/10/21 11:49:45;;;;;;;0.30;0.30;;;17.20;99.90;;;;;;4363621;32;1473124;-61
2023/10/21 11:52:11;;;;;;;0.30;0.30;;;17.40;99.90;;;;;;4405354;32;20092;-62
2023/10/21 11:54:46;;;;;;;0.45;0.45;;;17.50;99.90;;;;;;4404900;32;20098;-62
2023/10/21 11:58:55;;;;;;;0.30;0.30;;;17.60;99.90;;;;;;4394842;32;20098;-62
2023/10/21 12:05:26;;;;;;;0.30;0.30;;;17.30;99.90;;;;;;4404842;32;20081;-62
2023/10/21 12:07:16;;;;;;;0.28;0.28;;;17.40;99.90;;;;;;4402424;32;20129;-61
2023/10/21 12:16:59;;;;;;;0.50;0.50;;;18.00;99.90;;;;;;4390844;32;20086;-62
2023/10/21 12:19:16;;;;;;;0.30;0.30;;;17.90;99.90;;;;;;4386351;32;20094;-62
2023/10/21 12:22:20;;;;;;;0.30;0.30;;;17.70;99.90;;;;;;4388640;32;20110;-62
2023/10/21 12:24:45;;;;;;;0.40;0.40;;;17.70;99.90;;;;;;4394370;32;20976;-62
2023/10/21 12:32:37;;;;;;;0.22;0.22;;;19.20;99.90;;;;;;4402132;32;20070;-61
2023/10/21 12:33:57;;;;;;;0.30;0.30;;;19.90;99.90;;;;;;4392880;32;20082;-63
2023/10/21 12:35:39;;;;;;;0.30;0.30;;;19.70;99.90;;;;;;4389089;32;20141;-62
2023/10/21 12:40:35;;;;;;;0.22;0.22;;;18.80;99.90;;;;;;4400891;32;20409;-62
2023/10/21 12:45:46;;;;;;;0.30;0.30;;;18.70;99.90;;;;;;4401121;32;20113;-63
2023/10/21 12:48:13;;;;;;;0.30;0.30;;;18.50;99.90;;;;;;4400544;32;20065;-62
2023/10/21 12:50:40;;;;;;;0.30;0.30;;;18.40;99.90;;;;;;4403109;32;20082;-63
2023/10/21 12:53:07;;;;;;;0.30;0.30;;;18.20;99.90;;;;;;4406878;32;20065;-63
2023/10/21 12:55:35;;;;;;;0.60;0.60;;;18.10;99.90;;;;;;4407690;32;20062;-62
2023/10/21 12:58:01;;;;;;;0.30;0.30;;;18.10;99.90;;;;;;4396975;32;20089;-61
2023/10/21 13:02:54;;;;;;;0.25;0.25;;;18.10;99.90;;;;;;4409585;32;20058;-63
2023/10/21 13:05:20;;;;;;;0.30;0.30;;;18.00;99.90;;;;;;4409561;32;20299;-63
2023/10/21 13:07:45;;;;;;;0.30;0.30;;;18.00;99.90;;;;;;4406379;32;20102;-62
2023/10/21 13:10:11;;;;;;;0.30;0.30;;;18.00;99.90;;;;;;4403848;32;20155;-62
2023/10/21 13:12:37;;;;;;;0.40;0.40;;;18.10;99.90;;;;;;4407162;32;20529;-63
2023/10/21 13:15:05;;;;;;;0.45;0.45;;;18.00;99.90;;;;;;4407034;32;20110;-63